Summerdale, Pennsylvania
Current Conditions -  °F | °C
As of 4:56 PM on Monday 22 Dec 2014 (Local Time) from KCXY Reporting Station
Light Rain Light Rain  
Wind Chill: 36°   Ceiling: 3500
Heat Index: 36°   Visibility: 6mi
Dew Point: 30°   Wind: 0mph
Humidity: 79%   Direction: NA
Pressure: 30.19"   Gusts: NA
Location:  40.31°N, 76.93°W
Report Text: KCXY 222156Z 00000KT 6SM -RA FEW020 OVC035 02/M01 A3019 RMK AO2 RAB53 SLP229 P0000 T00221011
Loading
Personal Weather Stations






























Interactive Weather Map New forecast layout! Learn more

10-Day Weather Forecast

Advertisements
Track Severe Weather on mobile